sensor_id;sensor_type;location;lat;lon;timestamp;P1;durP1;ratioP1;P2;durP2;ratioP2
3881;SDS011;1956;53.482;10.238;2022-10-17T00:00:09;4.40;;;2.93;;
3881;SDS011;1956;53.482;10.238;2022-10-17T00:05:10;4.73;;;3.00;;
3881;SDS011;1956;53.482;10.238;2022-10-17T00:10:11;7.10;;;3.47;;
3881;SDS011;1956;53.482;10.238;2022-10-17T00:15:14;6.83;;;3.17;;
3881;SDS011;1956;53.482;10.238;2022-10-17T00:20:16;3.57;;;2.90;;
3881;SDS011;1956;53.482;10.238;2022-10-17T00:25:16;6.43;;;3.40;;
3881;SDS011;1956;53.482;10.238;2022-10-17T00:30:17;5.93;;;4.07;;
3881;SDS011;1956;53.482;10.238;2022-10-17T00:35:18;8.20;;;3.07;;
3881;SDS011;1956;53.482;10.238;2022-10-17T00:40:18;5.30;;;3.70;;
3881;SDS011;1956;53.482;10.238;2022-10-17T00:45:23;4.60;;;3.60;;
3881;SDS011;1956;53.482;10.238;2022-10-17T00:50:25;5.93;;;3.00;;
3881;SDS011;1956;53.482;10.238;2022-10-17T00:55:26;4.30;;;2.77;;
3881;SDS011;1956;53.482;10.238;2022-10-17T01:00:29;5.93;;;3.83;;
3881;SDS011;1956;53.482;10.238;2022-10-17T01:05:30;6.70;;;2.80;;
3881;SDS011;1956;53.482;10.238;2022-10-17T01:10:32;10.10;;;3.50;;
3881;SDS011;1956;53.482;10.238;2022-10-17T01:15:44;3.73;;;3.43;;
3881;SDS011;1956;53.482;10.238;2022-10-17T01:26:39;7.17;;;2.90;;
3881;SDS011;1956;53.482;10.238;2022-10-17T01:32:11;12.23;;;3.83;;
3881;SDS011;1956;53.482;10.238;2022-10-17T01:37:18;8.43;;;3.10;;
3881;SDS011;1956;53.482;10.238;2022-10-17T01:43:12;7.60;;;3.83;;
3881;SDS011;1956;53.482;10.238;2022-10-17T01:47:47;11.37;;;3.60;;
3881;SDS011;1956;53.482;10.238;2022-10-17T01:52:51;14.30;;;4.00;;
3881;SDS011;1956;53.482;10.238;2022-10-17T01:58:04;6.60;;;3.53;;
3881;SDS011;1956;53.482;10.238;2022-10-17T02:03:13;12.40;;;3.80;;
3881;SDS011;1956;53.482;10.238;2022-10-17T02:13:57;9.40;;;5.03;;
3881;SDS011;1956;53.482;10.238;2022-10-17T02:20:29;4.97;;;3.80;;
3881;SDS011;1956;53.482;10.238;2022-10-17T02:24:46;9.20;;;3.87;;
3881;SDS011;1956;53.482;10.238;2022-10-17T02:30:02;11.80;;;3.63;;
3881;SDS011;1956;53.482;10.238;2022-10-17T02:35:14;7.17;;;4.07;;
3881;SDS011;1956;53.482;10.238;2022-10-17T02:40:15;5.43;;;4.10;;
3881;SDS011;1956;53.482;10.238;2022-10-17T02:45:16;6.33;;;4.80;;
3881;SDS011;1956;53.482;10.238;2022-10-17T02:50:17;4.20;;;3.90;;
3881;SDS011;1956;53.482;10.238;2022-10-17T03:00:40;10.43;;;3.83;;
3881;SDS011;1956;53.482;10.238;2022-10-17T03:05:41;3.90;;;3.63;;
3881;SDS011;1956;53.482;10.238;2022-10-17T03:10:41;4.47;;;3.67;;
3881;SDS011;1956;53.482;10.238;2022-10-17T03:15:42;4.00;;;3.60;;
3881;SDS011;1956;53.482;10.238;2022-10-17T03:20:42;7.97;;;2.63;;
3881;SDS011;1956;53.482;10.238;2022-10-17T03:25:42;3.07;;;2.77;;
3881;SDS011;1956;53.482;10.238;2022-10-17T03:30:43;3.10;;;2.80;;
3881;SDS011;1956;53.482;10.238;2022-10-17T03:35:43;6.20;;;2.60;;
3881;SDS011;1956;53.482;10.238;2022-10-17T03:40:44;3.93;;;2.00;;
3881;SDS011;1956;53.482;10.238;2022-10-17T03:45:44;5.30;;;2.50;;
3881;SDS011;1956;53.482;10.238;2022-10-17T03:50:44;2.63;;;2.43;;
3881;SDS011;1956;53.482;10.238;2022-10-17T03:55:45;3.00;;;2.73;;
3881;SDS011;1956;53.482;10.238;2022-10-17T04:00:45;4.03;;;2.60;;
3881;SDS011;1956;53.482;10.238;2022-10-17T04:05:45;2.90;;;2.43;;
3881;SDS011;1956;53.482;10.238;2022-10-17T04:10:46;4.43;;;2.53;;
3881;SDS011;1956;53.482;10.238;2022-10-17T04:15:55;3.50;;;3.13;;
3881;SDS011;1956;53.482;10.238;2022-10-17T04:21:00;3.83;;;2.47;;
3881;SDS011;1956;53.482;10.238;2022-10-17T04:26:02;3.40;;;2.73;;
3881;SDS011;1956;53.482;10.238;2022-10-17T04:31:05;5.50;;;2.70;;
3881;SDS011;1956;53.482;10.238;2022-10-17T04:36:09;4.17;;;2.70;;
3881;SDS011;1956;53.482;10.238;2022-10-17T04:41:15;3.17;;;2.87;;
3881;SDS011;1956;53.482;10.238;2022-10-17T04:46:17;2.73;;;2.43;;
3881;SDS011;1956;53.482;10.238;2022-10-17T04:51:17;5.27;;;2.57;;
3881;SDS011;1956;53.482;10.238;2022-10-17T04:56:19;5.97;;;2.43;;
3881;SDS011;1956;53.482;10.238;2022-10-17T05:01:21;2.90;;;2.77;;
3881;SDS011;1956;53.482;10.238;2022-10-17T05:06:23;3.20;;;2.80;;
3881;SDS011;1956;53.482;10.238;2022-10-17T05:11:28;5.27;;;2.60;;
3881;SDS011;1956;53.482;10.238;2022-10-17T05:16:28;8.10;;;2.90;;
3881;SDS011;1956;53.482;10.238;2022-10-17T05:21:30;5.77;;;3.00;;
3881;SDS011;1956;53.482;10.238;2022-10-17T05:26:30;5.27;;;2.87;;
3881;SDS011;1956;53.482;10.238;2022-10-17T05:31:31;6.40;;;2.80;;
3881;SDS011;1956;53.482;10.238;2022-10-17T05:36:31;7.47;;;3.13;;
3881;SDS011;1956;53.482;10.238;2022-10-17T05:41:32;7.80;;;3.13;;
3881;SDS011;1956;53.482;10.238;2022-10-17T05:46:32;4.13;;;2.93;;
3881;SDS011;1956;53.482;10.238;2022-10-17T05:51:32;6.17;;;3.37;;
3881;SDS011;1956;53.482;10.238;2022-10-17T05:56:33;4.30;;;2.77;;
3881;SDS011;1956;53.482;10.238;2022-10-17T06:01:33;3.23;;;2.93;;
3881;SDS011;1956;53.482;10.238;2022-10-17T06:06:37;6.43;;;3.53;;
3881;SDS011;1956;53.482;10.238;2022-10-17T06:11:38;10.23;;;3.20;;
3881;SDS011;1956;53.482;10.238;2022-10-17T06:16:39;7.10;;;4.00;;
3881;SDS011;1956;53.482;10.238;2022-10-17T06:21:39;3.40;;;3.20;;
3881;SDS011;1956;53.482;10.238;2022-10-17T06:26:39;4.03;;;3.60;;
3881;SDS011;1956;53.482;10.238;2022-10-17T06:31:40;3.80;;;3.27;;
3881;SDS011;1956;53.482;10.238;2022-10-17T06:36:40;10.27;;;3.53;;
3881;SDS011;1956;53.482;10.238;2022-10-17T06:41:40;3.40;;;3.10;;
3881;SDS011;1956;53.482;10.238;2022-10-17T06:46:43;5.90;;;3.73;;
3881;SDS011;1956;53.482;10.238;2022-10-17T06:51:43;3.67;;;3.43;;
3881;SDS011;1956;53.482;10.238;2022-10-17T06:56:44;3.83;;;3.13;;
3881;SDS011;1956;53.482;10.238;2022-10-17T07:01:44;3.70;;;3.33;;
3881;SDS011;1956;53.482;10.238;2022-10-17T07:06:45;4.17;;;3.80;;
3881;SDS011;1956;53.482;10.238;2022-10-17T07:11:45;6.10;;;3.47;;
3881;SDS011;1956;53.482;10.238;2022-10-17T07:16:45;4.00;;;3.70;;
3881;SDS011;1956;53.482;10.238;2022-10-17T07:21:46;5.47;;;3.87;;
3881;SDS011;1956;53.482;10.238;2022-10-17T07:26:48;7.57;;;4.00;;
3881;SDS011;1956;53.482;10.238;2022-10-17T07:31:48;4.23;;;3.83;;
3881;SDS011;1956;53.482;10.238;2022-10-17T07:36:49;12.83;;;3.90;;
3881;SDS011;1956;53.482;10.238;2022-10-17T07:41:51;5.50;;;4.27;;
3881;SDS011;1956;53.482;10.238;2022-10-17T07:46:51;4.27;;;3.87;;
3881;SDS011;1956;53.482;10.238;2022-10-17T07:51:51;5.27;;;3.93;;
3881;SDS011;1956;53.482;10.238;2022-10-17T07:56:52;5.27;;;3.70;;
3881;SDS011;1956;53.482;10.238;2022-10-17T08:01:55;6.30;;;3.90;;
3881;SDS011;1956;53.482;10.238;2022-10-17T08:06:55;5.30;;;3.67;;
3881;SDS011;1956;53.482;10.238;2022-10-17T08:11:56;6.40;;;3.57;;
3881;SDS011;1956;53.482;10.238;2022-10-17T08:16:56;5.53;;;3.20;;
3881;SDS011;1956;53.482;10.238;2022-10-17T08:21:56;10.43;;;3.70;;
3881;SDS011;1956;53.482;10.238;2022-10-17T08:26:58;5.27;;;4.20;;
3881;SDS011;1956;53.482;10.238;2022-10-17T08:31:59;4.60;;;3.90;;
3881;SDS011;1956;53.482;10.238;2022-10-17T08:37:00;3.37;;;3.07;;
3881;SDS011;1956;53.482;10.238;2022-10-17T08:47:59;3.30;;;3.00;;
3881;SDS011;1956;53.482;10.238;2022-10-17T08:53:20;3.10;;;2.90;;
3881;SDS011;1956;53.482;10.238;2022-10-17T08:58:24;3.73;;;3.27;;
3881;SDS011;1956;53.482;10.238;2022-10-17T09:08:41;4.00;;;2.93;;
3881;SDS011;1956;53.482;10.238;2022-10-17T09:19:38;7.13;;;2.77;;
3881;SDS011;1956;53.482;10.238;2022-10-17T09:30:21;13.47;;;3.07;;
3881;SDS011;1956;53.482;10.238;2022-10-17T09:35:25;6.10;;;2.53;;
3881;SDS011;1956;53.482;10.238;2022-10-17T09:40:30;2.93;;;2.50;;
3881;SDS011;1956;53.482;10.238;2022-10-17T09:45:32;3.50;;;2.80;;
3881;SDS011;1956;53.482;10.238;2022-10-17T09:50:42;8.70;;;2.63;;
3881;SDS011;1956;53.482;10.238;2022-10-17T09:55:45;7.10;;;2.40;;
3881;SDS011;1956;53.482;10.238;2022-10-17T10:00:47;2.70;;;2.50;;
3881;SDS011;1956;53.482;10.238;2022-10-17T10:06:01;3.80;;;2.93;;
3881;SDS011;1956;53.482;10.238;2022-10-17T10:11:06;3.63;;;3.00;;
3881;SDS011;1956;53.482;10.238;2022-10-17T10:16:12;7.73;;;2.63;;
3881;SDS011;1956;53.482;10.238;2022-10-17T10:21:17;2.50;;;2.30;;
3881;SDS011;1956;53.482;10.238;2022-10-17T10:26:23;5.73;;;2.30;;
3881;SDS011;1956;53.482;10.238;2022-10-17T10:31:33;5.70;;;2.93;;
3881;SDS011;1956;53.482;10.238;2022-10-17T10:36:45;3.50;;;2.70;;
3881;SDS011;1956;53.482;10.238;2022-10-17T10:41:48;2.93;;;2.70;;
3881;SDS011;1956;53.482;10.238;2022-10-17T10:47:04;11.90;;;2.83;;
3881;SDS011;1956;53.482;10.238;2022-10-17T10:52:05;6.33;;;2.97;;
3881;SDS011;1956;53.482;10.238;2022-10-17T10:57:09;6.30;;;2.70;;
3881;SDS011;1956;53.482;10.238;2022-10-17T11:02:20;11.77;;;3.30;;
3881;SDS011;1956;53.482;10.238;2022-10-17T11:18:25;4.83;;;3.40;;
3881;SDS011;1956;53.482;10.238;2022-10-17T11:23:46;7.80;;;2.37;;
3881;SDS011;1956;53.482;10.238;2022-10-17T11:28:48;4.60;;;3.20;;
3881;SDS011;1956;53.482;10.238;2022-10-17T11:34:23;6.83;;;3.20;;
3881;SDS011;1956;53.482;10.238;2022-10-17T11:44:41;5.23;;;2.80;;
3881;SDS011;1956;53.482;10.238;2022-10-17T11:49:46;3.60;;;3.40;;
3881;SDS011;1956;53.482;10.238;2022-10-17T11:54:50;6.77;;;2.67;;
3881;SDS011;1956;53.482;10.238;2022-10-17T12:05:28;12.70;;;3.00;;
3881;SDS011;1956;53.482;10.238;2022-10-17T12:10:51;8.17;;;3.33;;
3881;SDS011;1956;53.482;10.238;2022-10-17T12:32:30;12.83;;;3.40;;
3881;SDS011;1956;53.482;10.238;2022-10-17T12:38:13;7.37;;;3.33;;
3881;SDS011;1956;53.482;10.238;2022-10-17T12:43:36;10.63;;;3.30;;
3881;SDS011;1956;53.482;10.238;2022-10-17T12:54:21;6.20;;;4.33;;
3881;SDS011;1956;53.482;10.238;2022-10-17T12:59:23;6.47;;;4.07;;
3881;SDS011;1956;53.482;10.238;2022-10-17T13:04:25;12.23;;;5.13;;
3881;SDS011;1956;53.482;10.238;2022-10-17T13:09:26;7.33;;;6.20;;
3881;SDS011;1956;53.482;10.238;2022-10-17T13:14:29;5.77;;;4.90;;
3881;SDS011;1956;53.482;10.238;2022-10-17T13:19:38;10.03;;;5.57;;
3881;SDS011;1956;53.482;10.238;2022-10-17T13:24:40;6.43;;;4.80;;
3881;SDS011;1956;53.482;10.238;2022-10-17T13:29:42;5.10;;;4.70;;
3881;SDS011;1956;53.482;10.238;2022-10-17T13:34:43;9.13;;;5.00;;
3881;SDS011;1956;53.482;10.238;2022-10-17T13:39:44;9.10;;;5.20;;
3881;SDS011;1956;53.482;10.238;2022-10-17T13:44:46;7.60;;;5.90;;
3881;SDS011;1956;53.482;10.238;2022-10-17T13:49:46;11.00;;;5.93;;
3881;SDS011;1956;53.482;10.238;2022-10-17T13:54:47;8.43;;;5.97;;
3881;SDS011;1956;53.482;10.238;2022-10-17T14:00:00;10.83;;;6.40;;
3881;SDS011;1956;53.482;10.238;2022-10-17T14:05:11;12.60;;;7.10;;
3881;SDS011;1956;53.482;10.238;2022-10-17T14:10:18;10.93;;;7.57;;
3881;SDS011;1956;53.482;10.238;2022-10-17T14:15:21;17.73;;;7.80;;
3881;SDS011;1956;53.482;10.238;2022-10-17T14:20:24;9.67;;;7.70;;
3881;SDS011;1956;53.482;10.238;2022-10-17T14:25:32;17.00;;;9.20;;
3881;SDS011;1956;53.482;10.238;2022-10-17T14:30:37;17.10;;;10.17;;
3881;SDS011;1956;53.482;10.238;2022-10-17T14:35:39;11.00;;;9.90;;
3881;SDS011;1956;53.482;10.238;2022-10-17T14:40:42;11.60;;;10.13;;
3881;SDS011;1956;53.482;10.238;2022-10-17T14:45:48;18.17;;;9.93;;
3881;SDS011;1956;53.482;10.238;2022-10-17T14:51:11;14.30;;;11.40;;
3881;SDS011;1956;53.482;10.238;2022-10-17T14:56:23;16.97;;;9.67;;
3881;SDS011;1956;53.482;10.238;2022-10-17T15:01:24;11.60;;;9.90;;
3881;SDS011;1956;53.482;10.238;2022-10-17T15:06:29;18.90;;;11.50;;
3881;SDS011;1956;53.482;10.238;2022-10-17T15:11:31;17.37;;;11.40;;
3881;SDS011;1956;53.482;10.238;2022-10-17T15:16:32;14.93;;;11.73;;
3881;SDS011;1956;53.482;10.238;2022-10-17T15:21:33;16.90;;;10.70;;
3881;SDS011;1956;53.482;10.238;2022-10-17T15:26:35;12.27;;;10.70;;
3881;SDS011;1956;53.482;10.238;2022-10-17T15:31:36;14.07;;;11.40;;
3881;SDS011;1956;53.482;10.238;2022-10-17T15:36:39;14.90;;;11.77;;
3881;SDS011;1956;53.482;10.238;2022-10-17T15:41:41;21.20;;;12.70;;
3881;SDS011;1956;53.482;10.238;2022-10-17T15:46:41;20.93;;;13.40;;
3881;SDS011;1956;53.482;10.238;2022-10-17T15:51:42;20.23;;;13.20;;
3881;SDS011;1956;53.482;10.238;2022-10-17T15:56:42;17.90;;;12.97;;
3881;SDS011;1956;53.482;10.238;2022-10-17T16:01:47;20.10;;;14.70;;
3881;SDS011;1956;53.482;10.238;2022-10-17T16:06:47;20.20;;;14.97;;
3881;SDS011;1956;53.482;10.238;2022-10-17T16:11:48;30.33;;;13.97;;
3881;SDS011;1956;53.482;10.238;2022-10-17T16:16:48;15.60;;;12.70;;
3881;SDS011;1956;53.482;10.238;2022-10-17T16:21:48;16.83;;;12.53;;
3881;SDS011;1956;53.482;10.238;2022-10-17T16:26:49;18.60;;;13.10;;
3881;SDS011;1956;53.482;10.238;2022-10-17T16:31:50;13.50;;;12.10;;
3881;SDS011;1956;53.482;10.238;2022-10-17T16:36:50;15.60;;;12.93;;
3881;SDS011;1956;53.482;10.238;2022-10-17T16:41:50;24.23;;;14.03;;
3881;SDS011;1956;53.482;10.238;2022-10-17T16:46:51;16.03;;;13.97;;
3881;SDS011;1956;53.482;10.238;2022-10-17T16:51:51;23.58;;;15.77;;
3881;SDS011;1956;53.482;10.238;2022-10-17T16:56:51;19.63;;;14.90;;
3881;SDS011;1956;53.482;10.238;2022-10-17T17:01:52;25.27;;;17.60;;
3881;SDS011;1956;53.482;10.238;2022-10-17T17:06:52;30.77;;;21.50;;
3881;SDS011;1956;53.482;10.238;2022-10-17T17:11:52;25.53;;;19.30;;
3881;SDS011;1956;53.482;10.238;2022-10-17T17:16:53;22.73;;;18.43;;
3881;SDS011;1956;53.482;10.238;2022-10-17T17:21:53;36.20;;;23.97;;
3881;SDS011;1956;53.482;10.238;2022-10-17T17:26:54;29.20;;;21.37;;
3881;SDS011;1956;53.482;10.238;2022-10-17T17:31:55;33.80;;;22.20;;
3881;SDS011;1956;53.482;10.238;2022-10-17T17:36:55;31.63;;;20.07;;
3881;SDS011;1956;53.482;10.238;2022-10-17T17:41:56;31.60;;;17.80;;
3881;SDS011;1956;53.482;10.238;2022-10-17T17:46:56;23.80;;;18.93;;
3881;SDS011;1956;53.482;10.238;2022-10-17T17:51:56;28.30;;;18.60;;
3881;SDS011;1956;53.482;10.238;2022-10-17T17:56:57;27.47;;;18.77;;
3881;SDS011;1956;53.482;10.238;2022-10-17T18:01:57;24.67;;;18.70;;
3881;SDS011;1956;53.482;10.238;2022-10-17T18:06:57;23.60;;;18.67;;
3881;SDS011;1956;53.482;10.238;2022-10-17T18:11:58;24.70;;;19.43;;
3881;SDS011;1956;53.482;10.238;2022-10-17T18:16:58;27.37;;;19.83;;
3881;SDS011;1956;53.482;10.238;2022-10-17T18:21:58;28.03;;;19.63;;
3881;SDS011;1956;53.482;10.238;2022-10-17T18:26:59;25.73;;;19.40;;
3881;SDS011;1956;53.482;10.238;2022-10-17T18:31:59;26.73;;;20.10;;
3881;SDS011;1956;53.482;10.238;2022-10-17T18:36:59;31.47;;;22.00;;
3881;SDS011;1956;53.482;10.238;2022-10-17T18:42:01;35.93;;;22.30;;
3881;SDS011;1956;53.482;10.238;2022-10-17T18:47:01;30.50;;;21.70;;
3881;SDS011;1956;53.482;10.238;2022-10-17T18:52:02;38.37;;;22.20;;
3881;SDS011;1956;53.482;10.238;2022-10-17T18:57:02;32.57;;;21.97;;
3881;SDS011;1956;53.482;10.238;2022-10-17T19:02:03;27.97;;;22.07;;
3881;SDS011;1956;53.482;10.238;2022-10-17T19:07:03;31.00;;;21.30;;
3881;SDS011;1956;53.482;10.238;2022-10-17T19:12:04;45.27;;;21.20;;
3881;SDS011;1956;53.482;10.238;2022-10-17T19:17:04;44.70;;;24.50;;
3881;SDS011;1956;53.482;10.238;2022-10-17T19:22:04;34.63;;;25.10;;
3881;SDS011;1956;53.482;10.238;2022-10-17T19:27:05;45.40;;;25.80;;
3881;SDS011;1956;53.482;10.238;2022-10-17T19:32:05;46.00;;;25.60;;
3881;SDS011;1956;53.482;10.238;2022-10-17T19:37:08;35.33;;;24.00;;
3881;SDS011;1956;53.482;10.238;2022-10-17T19:42:08;47.60;;;26.00;;
3881;SDS011;1956;53.482;10.238;2022-10-17T19:47:09;38.50;;;25.60;;
3881;SDS011;1956;53.482;10.238;2022-10-17T19:52:09;39.23;;;28.67;;
3881;SDS011;1956;53.482;10.238;2022-10-17T19:57:10;46.10;;;27.80;;
3881;SDS011;1956;53.482;10.238;2022-10-17T20:02:11;40.33;;;27.83;;
3881;SDS011;1956;53.482;10.238;2022-10-17T20:07:12;36.60;;;26.80;;
3881;SDS011;1956;53.482;10.238;2022-10-17T20:12:12;30.57;;;26.13;;
3881;SDS011;1956;53.482;10.238;2022-10-17T20:17:12;30.07;;;23.37;;
3881;SDS011;1956;53.482;10.238;2022-10-17T20:22:13;29.27;;;24.37;;
3881;SDS011;1956;53.482;10.238;2022-10-17T20:27:13;44.33;;;35.20;;
3881;SDS011;1956;53.482;10.238;2022-10-17T20:32:14;29.57;;;22.70;;
3881;SDS011;1956;53.482;10.238;2022-10-17T20:37:14;21.70;;;16.50;;
3881;SDS011;1956;53.482;10.238;2022-10-17T20:42:14;22.13;;;14.70;;
3881;SDS011;1956;53.482;10.238;2022-10-17T20:47:15;16.40;;;13.83;;
3881;SDS011;1956;53.482;10.238;2022-10-17T20:52:15;20.77;;;14.70;;
3881;SDS011;1956;53.482;10.238;2022-10-17T20:57:16;19.00;;;14.60;;
3881;SDS011;1956;53.482;10.238;2022-10-17T21:02:16;16.60;;;13.57;;
3881;SDS011;1956;53.482;10.238;2022-10-17T21:07:17;16.23;;;12.70;;
3881;SDS011;1956;53.482;10.238;2022-10-17T21:12:20;19.00;;;15.30;;
3881;SDS011;1956;53.482;10.238;2022-10-17T21:17:20;20.10;;;17.30;;
3881;SDS011;1956;53.482;10.238;2022-10-17T21:22:21;21.40;;;16.50;;
3881;SDS011;1956;53.482;10.238;2022-10-17T21:27:21;19.90;;;14.60;;
3881;SDS011;1956;53.482;10.238;2022-10-17T21:32:21;27.83;;;13.23;;
3881;SDS011;1956;53.482;10.238;2022-10-17T21:37:22;16.80;;;12.37;;
3881;SDS011;1956;53.482;10.238;2022-10-17T21:42:22;19.80;;;14.77;;
3881;SDS011;1956;53.482;10.238;2022-10-17T21:47:23;19.77;;;13.23;;
3881;SDS011;1956;53.482;10.238;2022-10-17T21:52:23;17.23;;;12.20;;
3881;SDS011;1956;53.482;10.238;2022-10-17T21:57:23;19.63;;;13.80;;
3881;SDS011;1956;53.482;10.238;2022-10-17T22:02:24;19.03;;;12.13;;
3881;SDS011;1956;53.482;10.238;2022-10-17T22:07:24;21.90;;;12.10;;
3881;SDS011;1956;53.482;10.238;2022-10-17T22:12:25;12.67;;;10.80;;
3881;SDS011;1956;53.482;10.238;2022-10-17T22:17:25;16.03;;;11.40;;
3881;SDS011;1956;53.482;10.238;2022-10-17T22:22:25;16.80;;;11.43;;
3881;SDS011;1956;53.482;10.238;2022-10-17T22:27:26;21.73;;;13.43;;
3881;SDS011;1956;53.482;10.238;2022-10-17T22:32:26;18.33;;;13.47;;
3881;SDS011;1956;53.482;10.238;2022-10-17T22:37:26;22.10;;;14.80;;
3881;SDS011;1956;53.482;10.238;2022-10-17T22:42:27;19.47;;;14.10;;
3881;SDS011;1956;53.482;10.238;2022-10-17T22:47:30;22.10;;;14.30;;
3881;SDS011;1956;53.482;10.238;2022-10-17T22:52:30;25.10;;;14.80;;
3881;SDS011;1956;53.482;10.238;2022-10-17T22:57:31;25.80;;;13.97;;
3881;SDS011;1956;53.482;10.238;2022-10-17T23:02:31;19.60;;;14.80;;
3881;SDS011;1956;53.482;10.238;2022-10-17T23:07:32;29.50;;;14.37;;
3881;SDS011;1956;53.482;10.238;2022-10-17T23:12:32;24.47;;;15.97;;
3881;SDS011;1956;53.482;10.238;2022-10-17T23:17:33;25.30;;;15.57;;
3881;SDS011;1956;53.482;10.238;2022-10-17T23:22:33;29.70;;;14.63;;
3881;SDS011;1956;53.482;10.238;2022-10-17T23:27:33;27.20;;;14.70;;
3881;SDS011;1956;53.482;10.238;2022-10-17T23:32:34;25.77;;;14.30;;
3881;SDS011;1956;53.482;10.238;2022-10-17T23:37:34;24.00;;;14.03;;
3881;SDS011;1956;53.482;10.238;2022-10-17T23:42:35;28.67;;;15.83;;
3881;SDS011;1956;53.482;10.238;2022-10-17T23:47:35;22.00;;;13.40;;
3881;SDS011;1956;53.482;10.238;2022-10-17T23:52:36;23.37;;;14.30;;
3881;SDS011;1956;53.482;10.238;2022-10-17T23:57:36;26.00;;;14.47;;
